Geneva, IL (60134)

6:38 PM CST on December 04, 2016 (GMT -0600)
Near West Side Davis School Area | | Change Station

Elev 773 ft 41.90 °N, 88.32 °W | Updated 49 seconds ago

Light Snow
Light Snow Freezing Fog
30.7 °F
Feels Like 31 °F
N
0.0
Wind Variable Wind from SSW

Today
High -- | Low -- °F
--% Chance of Precip.
Yesterday
High -- | Low -- °F
Precip. -- in
Pressure 29.88 in
Visibility 0.5 miles
Clouds Few 700 ft
Mostly Cloudy 1100 ft
Overcast 3600 ft
Windchill 31 °F
Dew Point 28 °F
Humidity 91%
Rainfall 0.00 in
Snow Depth Not available.
7:04 AM 4:22 PM
Waxing Crescent, 26% visible
SPECI KDPA 050029Z 30003KT 1/2SM R02L/3500FT -SN FZFG FEW007 BKN011 OVC036 M01/M03 A2988 RMK AO2 P0000 T10111028
Pressure 29.88 in
Visibility 0.5 miles
Clouds Few 700 ft
Mostly Cloudy 1100 ft
Overcast 3600 ft
Windchill 31 °F
Dew Point 28 °F
Humidity 91%
Rainfall 0.00 in
Snow Depth Not available.
7:04 AM 4:22 PM
Waxing Crescent, 26% visible
SPECI KDPA 050029Z 30003KT 1/2SM R02L/3500FT -SN FZFG FEW007 BKN011 OVC036 M01/M03 A2988 RMK AO2 P0000 T10111028

10-Day Weather Forecast

Almanac

Astronomy

Dec. 04, 2016 Rise Set
Actual Time
Civil Twilight
Nautical Twilight
Astronomical Twilight
Moon
Length of Visible Light
Length of Day
Tomorrow will be .
, % of the Moon is Illuminated

Today's Extremes

State Highs State Lows

Community

WunderPhotos

Upload Photos

1,955,725 photos uploaded!

WunderBlog® & News

Nearby

Air Quality

  Air Quality AQ Index Pollutant
Not available.

Snow Depth

Station Depth Elevation

Earthquake Activity

City Distance Mag. Time & Date
Minimum magnitude displayed is 2.5.

Coastal Water Temperatures

Place Temperature

Stations

Nearby Weather Stations

Station Location Temp. Windchill Dew Point Humidity Wind Precip. Elev Updated Type
                   

Watches & Warnings

There are currently no watches in effect.